Loup City, NE (68853)

4:32 PM CDT on August 20, 2014 (GMT -0500)
Central | Change Station
CLOSE
Current Station
Personal Weather Station
Location: Loup City, NE
Elevation: 2090 ft
Nearby Weather Stations

Elev 2090 ft 41.28 °N, 98.97 °W | Updated 7 minutes ago

Partly Cloudy
Partly Cloudy
90.3 °F
Feels Like 103 °F
N
6.8
Wind Variable Wind from SSW

Today
High -- | Low -- °F
--% Chance of Precip.
Yesterday
High -- | Low -- °F
Precip. -- in
6:50 AM 8:27 PM
Waning Crescent, 19% visible
Pressure 29.69 in
Visibility 10.0 miles
Clouds Few 3400 ft
Heat Index 103 °F
Dew Point 76 °F
Humidity 64%
Rainfall 0.02 in
Snow Depth Not available.
UV 7 out of 12
Pollen 10.90 out of 12
Air Quality Not available.
Flu Activity Not available.
METAR KODX 202053Z AUTO 16013KT 10SM FEW034 31/23 A2973 RMK AO2 SLP053 T03060228 56010

More Conditions Fewer Conditions

Pressure 29.69 in
Visibility 10.0 miles
Clouds Few 3400 ft
Heat Index 103 °F
Dew Point 76 °F
Humidity 64%
Rainfall 0.02 in
Snow Depth Not available.
UV 7 out of 12
Pollen 10.90 out of 12
Air Quality Not available.
Flu Activity Not available.
METAR KODX 202053Z AUTO 16013KT 10SM FEW034 31/23 A2973 RMK AO2 SLP053 T03060228 56010

More Conditions Fewer Conditions

10-Day Weather Forecast

Almanac

Astronomy

Aug. 20, 2014 Rise Set
Actual Time 6:50 AM CDT 8:27 PM CDT
Civil Twilight 6:20 AM CDT 8:56 PM CDT
Nautical Twilight 5:45 AM CDT 9:31 PM CDT
Astronomical Twilight 5:07 AM CDT 10:09 PM CDT
Moon 2:30 AM CDT 5:14 PM CDT
Length of Visible Light 14h 35m
Length of Day
13h 37m
Tomorrow will be 2m 31s shorter.
Waning Crescent, 19% of the Moon is Illuminated
Today
Waning Crescent
Aug 25
New
Sep 2
First Quarter
Sep 8
Full
Sep 15
Last Quarter

Today's Extremes

State Highs State Lows

Community

WunderPhotos

Upload Photos

1,745,763 photos uploaded!

WunderBlogs® & News

Nearby

Snow Depth

Station Depth Elevation
No new snow has been reported.

Earthquake Activity

City Distance Mag. Time & Date
No recent earthquake activity has been reported nearby.
Minimum magnitude displayed is 2.5.

Coastal Water Temperatures

Place Temperature
No Stations Reporting

Nearby Weather Stations